createdAt,value
2019-02-17T00:02:11.745Z,111.83
2019-02-17T00:04:42.433Z,110.60
2019-02-17T00:07:13.001Z,114.40
2019-02-17T00:09:43.493Z,112.97
2019-02-17T00:12:14.001Z,113.43
2019-02-17T00:14:44.494Z,113.40
2019-02-17T00:17:15.005Z,111.30
2019-02-17T00:19:48.459Z,112.73
2019-02-17T00:22:19.373Z,112.03
2019-02-17T00:24:50.049Z,114.87
2019-02-17T00:27:20.716Z,111.13
2019-02-17T00:29:51.296Z,111.40
2019-02-17T00:32:21.758Z,112.80
2019-02-17T00:34:52.376Z,112.10
2019-02-17T00:37:22.772Z,112.77
2019-02-17T00:39:53.314Z,114.00
2019-02-17T00:42:23.825Z,113.10
2019-02-17T00:44:54.246Z,113.37
2019-02-17T00:47:24.729Z,113.13
2019-02-17T00:49:56.484Z,114.23
2019-02-17T00:52:27.945Z,113.60
2019-02-17T00:54:58.465Z,111.43
2019-02-17T00:57:28.935Z,113.47
2019-02-17T00:59:59.429Z,112.63
2019-02-17T01:02:30.071Z,111.90
2019-02-17T01:05:00.658Z,113.70
2019-02-17T01:07:31.518Z,111.83
2019-02-17T01:10:02.072Z,112.80
2019-02-17T01:12:32.605Z,111.70
2019-02-17T01:15:03.207Z,113.23
2019-02-17T01:17:33.796Z,111.57
2019-02-17T01:20:04.570Z,113.17
2019-02-17T01:22:35.022Z,112.07
2019-02-17T01:25:05.822Z,113.17
2019-02-17T01:27:36.350Z,114.40
2019-02-17T01:30:08.045Z,113.17
2019-02-17T01:32:38.560Z,112.87
2019-02-17T01:35:09.097Z,110.97
2019-02-17T01:37:40.171Z,112.13
2019-02-17T01:40:10.627Z,112.10
2019-02-17T01:42:41.287Z,111.77
2019-02-17T01:45:12.032Z,110.80
2019-02-17T01:47:42.498Z,110.63
2019-02-17T01:50:12.959Z,109.57
2019-02-17T01:52:43.432Z,110.77
2019-02-17T01:55:13.959Z,110.13
2019-02-17T01:57:44.376Z,110.13
2019-02-17T02:00:15.500Z,111.40
2019-02-17T02:02:46.074Z,112.17
2019-02-17T02:05:16.924Z,112.70
2019-02-17T02:07:47.468Z,111.77
2019-02-17T02:10:18.122Z,111.87
2019-02-17T02:12:48.537Z,111.77
2019-02-17T02:15:19.085Z,111.27
2019-02-17T02:17:49.605Z,110.47
2019-02-17T02:20:20.199Z,110.50
2019-02-17T02:22:51.028Z,109.50
2019-02-17T02:25:21.742Z,110.03
2019-02-17T02:27:52.443Z,109.50
2019-02-17T02:30:23.078Z,109.80
2019-02-17T02:32:53.817Z,109.67
2019-02-17T02:35:24.219Z,110.80
2019-02-17T02:37:54.790Z,109.00
2019-02-17T02:40:25.501Z,108.40
2019-02-17T02:42:55.987Z,109.37
2019-02-17T02:45:26.423Z,108.80
2019-02-17T02:47:56.920Z,108.83
2019-02-17T02:50:27.545Z,109.33
2019-02-17T02:52:58.361Z,109.67
2019-02-17T02:55:28.852Z,110.07
2019-02-17T02:57:59.418Z,109.10
2019-02-17T03:00:29.994Z,110.67
2019-02-17T03:03:00.504Z,109.20
2019-02-17T03:05:31.008Z,108.70
2019-02-17T03:08:01.588Z,110.03
2019-02-17T03:10:32.038Z,109.50
2019-02-17T03:13:02.536Z,109.47
2019-02-17T03:15:33.183Z,108.50
2019-02-17T03:18:03.631Z,108.90
2019-02-17T03:20:34.105Z,109.30
2019-02-17T03:23:04.565Z,108.80
2019-02-17T03:25:34.997Z,108.13
2019-02-17T03:28:05.568Z,109.37
2019-02-17T03:30:36.045Z,107.90
2019-02-17T03:33:06.547Z,108.00
2019-02-17T03:35:36.981Z,108.03
2019-02-17T03:38:07.471Z,106.97
2019-02-17T03:40:38.228Z,107.33
2019-02-17T03:43:08.841Z,106.77
2019-02-17T03:45:39.484Z,106.33
2019-02-17T03:48:09.992Z,107.40
2019-02-17T03:50:40.704Z,108.40
2019-02-17T03:53:11.245Z,108.23
2019-02-17T03:55:43.244Z,107.80
2019-02-17T03:58:13.680Z,108.23
2019-02-17T04:00:44.085Z,106.60
2019-02-17T04:03:14.665Z,106.80
2019-02-17T04:05:45.160Z,107.57
2019-02-17T04:08:15.736Z,106.27
2019-02-17T04:10:46.333Z,107.67
2019-02-17T04:13:16.919Z,108.63
2019-02-17T04:15:47.887Z,106.50
2019-02-17T04:18:18.429Z,107.17
2019-02-17T04:20:49.128Z,106.83
2019-02-17T04:23:30.396Z,106.83
2019-02-17T04:25:55.617Z,105.63
2019-02-17T04:28:26.204Z,106.00
2019-02-17T04:30:56.669Z,105.33
2019-02-17T04:33:27.240Z,106.60
2019-02-17T04:35:57.653Z,106.00
2019-02-17T04:38:28.275Z,107.47
2019-02-17T04:41:00.530Z,105.37
2019-02-17T04:43:32.658Z,105.87
2019-02-17T04:46:03.040Z,107.47
2019-02-17T04:48:33.598Z,106.73
2019-02-17T04:51:04.083Z,106.73
2019-02-17T04:53:34.565Z,107.57
2019-02-17T04:56:05.088Z,106.87
2019-02-17T04:58:36.675Z,107.43
2019-02-17T05:01:07.179Z,105.37
2019-02-17T05:03:37.927Z,105.53
2019-02-17T05:06:09.501Z,105.27
2019-02-17T05:08:40.252Z,106.83
2019-02-17T05:11:10.672Z,106.13
2019-02-17T05:13:41.120Z,105.47
2019-02-17T05:16:11.613Z,104.97
2019-02-17T05:18:42.111Z,105.67
2019-02-17T05:21:12.736Z,105.63
2019-02-17T05:23:43.172Z,106.03
2019-02-17T05:26:13.704Z,105.33
2019-02-17T05:28:44.252Z,104.83
2019-02-17T05:31:14.667Z,104.90
2019-02-17T05:33:45.331Z,105.57
2019-02-17T05:36:15.930Z,105.10
2019-02-17T05:38:46.486Z,106.40
2019-02-17T05:41:17.080Z,104.97
2019-02-17T05:43:47.531Z,106.93
2019-02-17T05:46:18.168Z,105.20
2019-02-17T05:48:48.627Z,106.67
2019-02-17T05:51:19.244Z,106.67
2019-02-17T05:53:49.973Z,105.60
2019-02-17T05:56:20.458Z,105.73
2019-02-17T05:58:51.127Z,107.13
2019-02-17T06:01:22.646Z,106.17
2019-02-17T06:03:53.183Z,105.50
2019-02-17T06:06:23.701Z,105.70
2019-02-17T06:08:54.130Z,105.80
2019-02-17T06:11:24.560Z,105.20
2019-02-17T06:13:55.301Z,107.20
2019-02-17T06:16:25.766Z,105.70
2019-02-17T06:18:56.243Z,106.50
2019-02-17T06:21:26.915Z,104.70
2019-02-17T06:23:57.475Z,106.17
2019-02-17T06:26:27.934Z,105.23
2019-02-17T06:28:58.464Z,105.23
2019-02-17T06:31:28.825Z,103.77
2019-02-17T06:33:59.333Z,105.10
2019-02-17T06:36:29.830Z,104.07
2019-02-17T06:39:00.270Z,105.57
2019-02-17T06:41:30.764Z,106.87
2019-02-17T06:44:01.294Z,105.53
2019-02-17T06:46:42.346Z,105.47
2019-02-17T06:49:13.081Z,105.10
2019-02-17T06:51:43.748Z,104.30
2019-02-17T06:54:14.324Z,102.23
2019-02-17T06:56:49.676Z,100.97
2019-02-17T06:59:20.184Z,104.83
2019-02-17T07:01:50.694Z,102.73
2019-02-17T07:04:25.722Z,103.57
2019-02-17T07:07:00.434Z,103.80
2019-02-17T07:09:30.870Z,102.43
2019-02-17T07:12:01.352Z,104.63
2019-02-17T07:14:31.889Z,104.67
2019-02-17T07:17:02.260Z,105.17
2019-02-17T07:19:32.703Z,106.03
2019-02-17T07:22:03.101Z,104.50
2019-02-17T07:24:33.600Z,104.90
2019-02-17T07:27:04.414Z,105.07
2019-02-17T07:29:34.858Z,106.37
2019-02-17T07:32:05.332Z,104.33
2019-02-17T07:34:35.824Z,104.83
2019-02-17T07:37:06.312Z,102.83
2019-02-17T07:39:36.910Z,102.83
2019-02-17T07:42:09.512Z,103.07
2019-02-17T07:44:40.456Z,103.73
2019-02-17T07:47:11.025Z,102.30
2019-02-17T07:49:41.468Z,103.40
2019-02-17T07:52:12.003Z,102.83
2019-02-17T07:54:43.043Z,102.27
2019-02-17T07:57:13.554Z,102.43
2019-02-17T07:59:44.111Z,104.80
2019-02-17T08:02:14.938Z,103.17
2019-02-17T08:04:45.476Z,103.80
2019-02-17T08:07:18.704Z,104.37
2019-02-17T08:09:49.176Z,105.67
2019-02-17T08:12:19.744Z,109.93
2019-02-17T08:14:50.486Z,111.87
2019-02-17T08:17:20.908Z,109.13
2019-02-17T08:19:51.363Z,111.83
2019-02-17T08:22:21.810Z,110.73
2019-02-17T08:24:52.400Z,113.43
2019-02-17T08:27:22.913Z,112.87
2019-02-17T08:29:53.439Z,112.37
2019-02-17T08:32:23.975Z,114.73
2019-02-17T08:34:54.445Z,114.17
2019-02-17T08:37:24.921Z,112.07
2019-02-17T08:39:55.452Z,114.83
2019-02-17T08:42:25.973Z,112.80
2019-02-17T08:44:56.481Z,115.70
2019-02-17T08:47:26.964Z,114.57
2019-02-17T08:49:57.532Z,113.47
2019-02-17T08:52:27.994Z,113.63
2019-02-17T08:54:58.533Z,114.10
2019-02-17T08:57:29.063Z,113.97
2019-02-17T08:59:59.693Z,117.30
2019-02-17T09:02:30.615Z,116.73
2019-02-17T09:05:01.279Z,114.23
2019-02-17T09:07:31.951Z,116.57
2019-02-17T09:10:12.072Z,117.20
2019-02-17T09:12:42.877Z,117.80
2019-02-17T09:15:14.450Z,116.43
2019-02-17T09:17:45.086Z,117.87
2019-02-17T09:20:15.656Z,118.43
2019-02-17T09:22:47.096Z,116.83
2019-02-17T09:25:17.609Z,118.70
2019-02-17T09:27:48.094Z,118.97
2019-02-17T09:30:18.563Z,114.83
2019-02-17T09:32:49.086Z,117.17
2019-02-17T09:35:19.562Z,115.37
2019-02-17T09:37:50.048Z,116.37
2019-02-17T09:40:20.827Z,115.17
2019-02-17T09:42:51.557Z,115.80
2019-02-17T09:45:23.261Z,113.90
2019-02-17T09:47:53.716Z,116.23
2019-02-17T09:50:24.097Z,114.37
2019-02-17T09:52:54.729Z,116.20
2019-02-17T09:55:25.112Z,116.07
2019-02-17T09:57:55.622Z,116.60
2019-02-17T10:00:26.388Z,117.20
2019-02-17T10:02:57.048Z,116.40
2019-02-17T10:05:27.754Z,114.83
2019-02-17T10:07:58.750Z,117.47
2019-02-17T10:10:29.427Z,115.27
2019-02-17T10:13:01.370Z,115.67
2019-02-17T10:15:34.763Z,114.37
2019-02-17T10:18:05.436Z,112.77
2019-02-17T10:20:36.022Z,114.60
2019-02-17T10:23:06.668Z,113.60
2019-02-17T10:25:37.286Z,111.40
2019-02-17T10:28:09.393Z,111.87
2019-02-17T10:30:39.891Z,114.77
2019-02-17T10:33:10.636Z,113.57
2019-02-17T10:35:41.348Z,115.77
2019-02-17T10:38:12.169Z,115.90
2019-02-17T10:40:42.704Z,115.93
2019-02-17T10:43:13.158Z,118.23
2019-02-17T10:45:43.672Z,114.83
2019-02-17T10:48:14.141Z,117.00
2019-02-17T10:50:45.155Z,114.77
2019-02-17T10:53:16.912Z,116.97
2019-02-17T10:55:47.632Z,115.17
2019-02-17T10:58:18.116Z,114.53
2019-02-17T11:00:48.599Z,117.90
2019-02-17T11:03:19.140Z,114.43
2019-02-17T11:05:49.664Z,116.60
2019-02-17T11:08:20.246Z,115.90
2019-02-17T11:10:50.983Z,114.40
2019-02-17T11:13:21.798Z,114.97
2019-02-17T11:15:52.314Z,114.00
2019-02-17T11:18:23.348Z,117.47
2019-02-17T11:20:53.726Z,116.17
2019-02-17T11:23:24.189Z,115.53
2019-02-17T11:25:54.789Z,114.23
2019-02-17T11:28:25.295Z,115.40
2019-02-17T11:30:55.902Z,117.73
2019-02-17T11:33:26.388Z,117.37
2019-02-17T11:35:57.210Z,115.17
2019-02-17T11:38:27.974Z,115.80
2019-02-17T11:40:58.576Z,117.97
2019-02-17T11:43:29.329Z,116.63
2019-02-17T11:46:00.043Z,117.50
2019-02-17T11:48:30.580Z,115.80
2019-02-17T11:51:01.058Z,116.40
2019-02-17T11:53:31.632Z,118.03
2019-02-17T11:56:02.020Z,113.90
2019-02-17T11:58:32.597Z,116.77
2019-02-17T12:01:05.266Z,116.83
2019-02-17T12:03:35.477Z,115.53
2019-02-17T12:06:06.035Z,115.77
2019-02-17T12:08:36.603Z,115.33
2019-02-17T12:11:07.114Z,114.80
2019-02-17T12:13:37.741Z,113.73
2019-02-17T12:16:08.373Z,114.90
2019-02-17T12:18:38.974Z,114.10
2019-02-17T12:21:18.112Z,115.37
2019-02-17T12:24:07.581Z,114.70
2019-02-17T12:27:03.043Z,114.93
2019-02-17T12:29:42.041Z,113.57
2019-02-17T12:32:12.488Z,114.70
2019-02-17T12:34:42.996Z,114.50
2019-02-17T12:37:13.457Z,113.80
2019-02-17T12:39:44.061Z,113.50
2019-02-17T12:42:14.540Z,116.90
2019-02-17T12:44:45.098Z,113.60
2019-02-17T12:47:17.671Z,114.67
2019-02-17T12:49:48.048Z,117.70
2019-02-17T12:52:18.474Z,116.47
2019-02-17T12:54:49.035Z,115.27
2019-02-17T12:57:19.788Z,116.43
2019-02-17T12:59:50.218Z,114.73
2019-02-17T13:02:20.682Z,118.53
2019-02-17T13:04:51.268Z,116.10
2019-02-17T13:07:21.722Z,114.93
2019-02-17T13:09:52.267Z,114.27
2019-02-17T13:12:22.817Z,113.67
2019-02-17T13:14:54.325Z,115.63
2019-02-17T13:17:24.788Z,115.03
2019-02-17T13:19:55.332Z,112.07
2019-02-17T13:22:25.756Z,116.00
2019-02-17T13:24:57.213Z,113.23
2019-02-17T13:27:27.880Z,113.00
2019-02-17T13:29:58.396Z,113.83
2019-02-17T13:32:28.947Z,112.53
2019-02-17T13:34:59.492Z,112.33
2019-02-17T13:37:30.385Z,111.13
2019-02-17T13:40:01.027Z,112.23
2019-02-17T13:42:31.803Z,115.27
2019-02-17T13:45:02.277Z,112.27
2019-02-17T13:47:33.829Z,108.60
2019-02-17T13:50:08.724Z,112.57
2019-02-17T13:52:39.089Z,111.00
2019-02-17T13:55:10.319Z,110.63
2019-02-17T13:57:41.037Z,112.27
2019-02-17T14:00:14.199Z,112.63
2019-02-17T14:02:44.761Z,113.33
2019-02-17T14:05:15.669Z,113.67
2019-02-17T14:07:46.119Z,112.33
2019-02-17T14:10:16.666Z,111.17
2019-02-17T14:12:47.222Z,115.10
2019-02-17T14:15:17.903Z,113.40
2019-02-17T14:17:51.197Z,114.47
2019-02-17T14:20:21.696Z,114.13
2019-02-17T14:22:53.958Z,114.47
2019-02-17T14:25:24.437Z,114.17
2019-02-17T14:27:55.184Z,111.13
2019-02-17T14:30:25.607Z,113.60
2019-02-17T14:32:56.129Z,112.00
2019-02-17T14:35:26.662Z,115.87
2019-02-17T14:37:57.180Z,115.13
2019-02-17T14:40:27.593Z,116.57
2019-02-17T14:42:58.314Z,115.83
2019-02-17T14:45:28.869Z,115.87
2019-02-17T14:47:59.386Z,116.80
2019-02-17T14:50:29.936Z,113.67
2019-02-17T14:53:00.455Z,112.83
2019-02-17T14:55:31.235Z,112.97
2019-02-17T14:58:05.450Z,113.87
2019-02-17T15:00:33.930Z,115.23
2019-02-17T15:03:04.550Z,115.80
2019-02-17T15:05:35.107Z,114.10
2019-02-17T15:08:05.717Z,115.17
2019-02-17T15:10:36.262Z,115.07
2019-02-17T15:13:06.839Z,114.57
2019-02-17T15:15:37.344Z,114.60
2019-02-17T15:18:08.073Z,116.83
2019-02-17T15:20:38.622Z,113.63
2019-02-17T15:23:09.181Z,113.83
2019-02-17T15:25:39.657Z,115.00
2019-02-17T15:28:10.161Z,116.20
2019-02-17T15:30:40.950Z,114.53
2019-02-17T15:33:11.512Z,115.53
2019-02-17T15:35:43.460Z,114.53
2019-02-17T15:38:14.063Z,111.13
2019-02-17T15:40:44.586Z,115.13
2019-02-17T15:43:15.187Z,112.57
2019-02-17T15:45:46.045Z,114.90
2019-02-17T15:48:16.433Z,112.43
2019-02-17T15:50:46.881Z,114.80
2019-02-17T15:53:17.420Z,117.37
2019-02-17T15:55:48.021Z,114.60
2019-02-17T15:58:18.504Z,113.67
2019-02-17T16:00:48.949Z,112.23
2019-02-17T16:03:19.464Z,111.13
2019-02-17T16:05:50.121Z,111.67
2019-02-17T16:08:20.649Z,113.43
2019-02-17T16:10:51.136Z,112.13
2019-02-17T16:13:21.723Z,113.30
2019-02-17T16:15:52.196Z,115.17
2019-02-17T16:18:22.697Z,116.57
2019-02-17T16:20:53.187Z,114.43
2019-02-17T16:23:24.039Z,116.13
2019-02-17T16:25:54.779Z,117.93
2019-02-17T16:28:25.204Z,116.43
2019-02-17T16:30:55.625Z,118.03
2019-02-17T16:33:26.222Z,116.97
2019-02-17T16:35:56.887Z,116.07
2019-02-17T16:38:27.388Z,118.40
2019-02-17T16:40:58.161Z,116.20
2019-02-17T16:43:30.294Z,116.83
2019-02-17T16:46:00.869Z,118.30
2019-02-17T16:48:31.704Z,114.83
2019-02-17T16:51:02.194Z,114.63
2019-02-17T16:53:32.736Z,115.03
2019-02-17T16:56:03.352Z,115.60
2019-02-17T16:58:34.101Z,113.20
2019-02-17T17:01:06.641Z,116.73
2019-02-17T17:03:37.270Z,114.70
2019-02-17T17:06:08.840Z,116.60
2019-02-17T17:08:39.816Z,116.53
2019-02-17T17:11:11.549Z,117.03
2019-02-17T17:13:42.335Z,116.87
2019-02-17T17:16:12.993Z,115.50
2019-02-17T17:18:43.589Z,116.60
2019-02-17T17:21:14.177Z,115.77
2019-02-17T17:23:45.653Z,116.03
2019-02-17T17:26:16.213Z,115.80
2019-02-17T17:28:46.691Z,114.40
2019-02-17T17:31:17.232Z,116.80
2019-02-17T17:33:48.913Z,116.13
2019-02-17T17:36:19.910Z,116.53
2019-02-17T17:38:50.455Z,116.43
2019-02-17T17:41:20.970Z,117.33
2019-02-17T17:43:51.845Z,116.67
2019-02-17T17:46:22.489Z,116.20
2019-02-17T17:48:53.070Z,114.93
2019-02-17T17:51:23.607Z,118.07
2019-02-17T17:53:54.306Z,115.83
2019-02-17T17:56:24.716Z,116.20
2019-02-17T17:58:55.283Z,115.73
2019-02-17T18:01:25.913Z,116.40
2019-02-17T18:03:56.441Z,116.83
2019-02-17T18:06:26.874Z,115.00
2019-02-17T18:08:57.508Z,116.87
2019-02-17T18:11:28.168Z,116.60
2019-02-17T18:13:58.752Z,116.10
2019-02-17T18:16:29.281Z,114.27
2019-02-17T18:18:59.986Z,116.80
2019-02-17T18:21:30.461Z,117.20
2019-02-17T18:24:01.126Z,115.73
2019-02-17T18:26:32.600Z,116.97
2019-02-17T18:29:03.124Z,115.80
2019-02-17T18:31:33.817Z,117.23
2019-02-17T18:34:04.496Z,116.63
2019-02-17T18:36:35.082Z,116.07
2019-02-17T18:39:06.923Z,116.67
2019-02-17T18:41:38.571Z,115.10
2019-02-17T18:44:09.206Z,115.00
2019-02-17T18:46:58.800Z,116.43
2019-02-17T18:49:30.965Z,112.60
2019-02-17T18:52:02.046Z,115.73
2019-02-17T18:54:34.837Z,116.87
2019-02-17T18:57:08.153Z,116.50
2019-02-17T18:59:37.992Z,116.77
2019-02-17T19:02:08.745Z,117.00
2019-02-17T19:04:39.343Z,119.10
2019-02-17T19:07:09.969Z,116.30
2019-02-17T19:09:40.613Z,116.30
2019-02-17T19:12:11.378Z,114.77
2019-02-17T19:14:42.039Z,115.47
2019-02-17T19:17:12.745Z,117.47
2019-02-17T19:19:43.291Z,117.20
2019-02-17T19:22:13.946Z,117.33
2019-02-17T19:24:44.580Z,114.27
2019-02-17T19:27:18.261Z,118.73
2019-02-17T19:29:48.915Z,116.13
2019-02-17T19:32:21.429Z,117.40
2019-02-17T19:34:52.236Z,117.17
2019-02-17T19:37:23.049Z,115.67
2019-02-17T19:39:53.860Z,115.87
2019-02-17T19:42:24.589Z,118.13
2019-02-17T19:44:55.374Z,117.27
2019-02-17T19:47:26.095Z,116.13
2019-02-17T19:49:56.880Z,114.83
2019-02-17T19:52:27.558Z,114.17
2019-02-17T19:54:58.264Z,114.87
2019-02-17T19:57:28.964Z,115.53
2019-02-17T19:59:59.522Z,115.67
2019-02-17T20:02:46.727Z,115.13
2019-02-17T20:05:35.491Z,116.00
2019-02-17T20:08:22.640Z,115.07
2019-02-17T20:11:02.168Z,114.43
2019-02-17T20:13:45.986Z,115.33
2019-02-17T20:16:39.012Z,114.03
2019-02-17T20:19:35.117Z,114.10
2019-02-17T20:22:13.272Z,110.73
2019-02-17T20:25:04.195Z,116.40
2019-02-17T20:27:55.913Z,114.43
2019-02-17T20:30:38.432Z,113.63
2019-02-17T20:33:10.884Z,112.20
2019-02-17T20:35:50.471Z,114.63
2019-02-17T20:38:29.870Z,115.83
2019-02-17T20:41:09.876Z,113.77
2019-02-17T20:44:01.815Z,117.10
2019-02-17T20:46:37.122Z,112.20
2019-02-17T20:49:09.688Z,113.43
2019-02-17T20:51:46.681Z,114.43
2019-02-17T20:54:34.420Z,113.23
2019-02-17T20:57:11.521Z,115.10
2019-02-17T20:59:53.612Z,114.43
2019-02-17T21:02:28.244Z,110.90
2019-02-17T21:05:02.980Z,115.73
2019-02-17T21:08:00.284Z,114.30
2019-02-17T21:10:35.324Z,114.03
2019-02-17T21:13:06.184Z,114.60
2019-02-17T21:15:37.194Z,115.83
2019-02-17T21:18:08.202Z,112.67
2019-02-17T21:20:38.833Z,111.77
2019-02-17T21:23:09.576Z,114.53
2019-02-17T21:25:40.161Z,115.03
2019-02-17T21:28:11.384Z,118.27
2019-02-17T21:30:42.294Z,117.87
2019-02-17T21:33:13.326Z,119.83
2019-02-17T21:35:44.108Z,114.23
2019-02-17T21:38:15.231Z,117.53
2019-02-17T21:40:46.173Z,118.30
2019-02-17T21:43:18.360Z,116.43
2019-02-17T21:45:49.158Z,113.30
2019-02-17T21:48:19.880Z,113.00
2019-02-17T21:50:50.529Z,111.47
2019-02-17T21:53:21.274Z,117.37
2019-02-17T21:55:52.149Z,117.27
2019-02-17T21:58:22.952Z,119.57
2019-02-17T22:00:53.534Z,118.33
2019-02-17T22:03:24.506Z,116.67
2019-02-17T22:05:55.479Z,113.20
2019-02-17T22:08:26.067Z,112.67
2019-02-17T22:10:56.867Z,114.27
2019-02-17T22:13:27.856Z,112.40
2019-02-17T22:15:58.427Z,114.30
2019-02-17T22:18:29.870Z,113.97
2019-02-17T22:21:00.750Z,110.53
2019-02-17T22:23:31.442Z,109.60
2019-02-17T22:26:02.352Z,114.03
2019-02-17T22:28:33.341Z,114.50
2019-02-17T22:31:05.296Z,115.87
2019-02-17T22:33:35.945Z,116.13
2019-02-17T22:36:07.646Z,112.13
2019-02-17T22:38:38.375Z,111.50
2019-02-17T22:41:09.513Z,113.77
2019-02-17T22:43:40.641Z,113.43
2019-02-17T22:46:12.040Z,111.60
2019-02-17T22:48:42.926Z,111.17
2019-02-17T22:51:13.666Z,110.30
2019-02-17T22:53:44.375Z,112.53
2019-02-17T22:56:15.095Z,111.60
2019-02-17T22:58:45.836Z,109.77
2019-02-17T23:01:24.373Z,112.33
2019-02-17T23:03:55.003Z,112.70
2019-02-17T23:06:25.870Z,112.80
2019-02-17T23:08:56.831Z,111.03
2019-02-17T23:11:27.493Z,110.83
2019-02-17T23:13:58.487Z,110.93
2019-02-17T23:16:29.196Z,111.67
2019-02-17T23:19:00.297Z,111.33
2019-02-17T23:21:30.827Z,109.90
2019-02-17T23:24:02.039Z,110.77
2019-02-17T23:26:32.681Z,113.40
2019-02-17T23:29:03.485Z,110.37
2019-02-17T23:31:34.171Z,111.87
2019-02-17T23:34:04.742Z,114.03
2019-02-17T23:36:35.305Z,113.47
2019-02-17T23:39:07.699Z,111.40
2019-02-17T23:41:39.315Z,113.57
2019-02-17T23:44:10.071Z,109.60
2019-02-17T23:46:41.728Z,111.53
2019-02-17T23:49:13.141Z,109.23
2019-02-17T23:51:43.631Z,111.10
2019-02-17T23:54:14.316Z,110.30
2019-02-17T23:56:45.042Z,110.70
2019-02-17T23:59:15.571Z,109.57
